Time;durP1;ratioP1;P1;durP2;ratioP2;P2;SDS_P1;SDS_P2;PMS_P1;PMS_P2;Temp;Humidity;BMP_temperature;BMP_pressure;BME280_temperature;BME280_humidity;BME280_pressure;Samples;Min_cycle;Max_cycle;Signal;HPM_P1;HPM_P2
2021/06/05 20:39:55;;;;;;;5.63;5.05;;;16.50;99.90;;;;;;5145251;22;20241;-70
2021/06/05 20:42:21;;;;;;;5.28;4.88;;;16.50;99.90;;;;;;5063940;28;20291;-70
2021/06/05 20:44:48;;;;;;;6.05;5.45;;;16.50;99.90;;;;;;5067627;28;20552;-69
2021/06/05 20:47:14;;;;;;;5.35;4.85;;;16.40;99.90;;;;;;5068094;28;20262;-69
2021/06/05 20:49:41;;;;;;;5.70;5.20;;;16.40;99.90;;;;;;5067683;28;20203;-69
2021/06/05 20:52:07;;;;;;;6.40;5.90;;;16.40;99.90;;;;;;5067883;28;20924;-69
2021/06/05 20:54:34;;;;;;;6.90;6.20;;;16.40;99.90;;;;;;5067287;28;20291;-69
2021/06/05 20:57:06;;;;;;;6.95;6.15;;;16.50;99.90;;;;;;5067498;28;20289;-69
2021/06/05 20:59:32;;;;;;;7.50;5.32;;;16.40;99.90;;;;;;5068455;28;20644;-69
2021/06/05 21:01:59;;;;;;;7.55;6.43;;;16.40;99.90;;;;;;5067405;28;20197;-68
2021/06/05 21:04:26;;;;;;;8.63;6.10;;;16.40;99.90;;;;;;5067066;28;20292;-69
2021/06/05 21:06:52;;;;;;;8.77;7.43;;;16.40;99.90;;;;;;5067611;28;20562;-68
2021/06/05 21:09:19;;;;;;;8.57;6.25;;;16.40;99.90;;;;;;5067975;28;20567;-68
2021/06/05 21:11:46;;;;;;;7.63;6.90;;;16.40;99.90;;;;;;5067226;28;20220;-68
2021/06/05 21:14:14;;;;;;;7.90;7.20;;;16.40;99.90;;;;;;5069330;28;20296;-68
2021/06/05 21:16:41;;;;;;;7.95;7.18;;;16.40;99.90;;;;;;5087584;28;20215;-68
2021/06/05 21:19:09;;;;;;;7.80;7.00;;;16.40;99.90;;;;;;5075532;28;20220;-68
2021/06/05 21:21:38;;;;;;;8.63;7.63;;;16.30;99.90;;;;;;5067921;28;20201;-68
2021/06/05 21:24:08;;;;;;;7.80;7.10;;;16.30;99.90;;;;;;5066481;28;20228;-68
2021/06/05 21:26:35;;;;;;;10.82;7.80;;;16.30;99.90;;;;;;5067510;28;20299;-68
2021/06/05 21:29:01;;;;;;;8.10;7.28;;;16.20;99.90;;;;;;5066899;28;20240;-68
2021/06/05 21:31:31;;;;;;;8.80;7.53;;;16.30;99.90;;;;;;5066919;28;20315;-68
2021/06/05 21:33:57;;;;;;;8.43;7.60;;;16.30;99.90;;;;;;5074308;28;20295;-68
2021/06/05 21:36:24;;;;;;;7.60;6.85;;;16.30;99.90;;;;;;5066992;28;20243;-68
2021/06/05 21:38:50;;;;;;;8.38;7.38;;;16.30;99.90;;;;;;5066857;28;20209;-68
2021/06/05 21:41:17;;;;;;;11.50;9.43;;;16.30;99.90;;;;;;5067369;28;20234;-68
2021/06/05 21:43:44;;;;;;;11.40;9.32;;;16.30;99.90;;;;;;5067117;28;20642;-68
2021/06/05 21:46:12;;;;;;;14.18;12.68;;;16.30;99.90;;;;;;5065977;28;20658;-68
2021/06/05 21:48:40;;;;;;;15.45;11.90;;;16.40;99.90;;;;;;5072572;28;20299;-68
2021/06/05 21:51:10;;;;;;;11.88;10.63;;;16.30;99.90;;;;;;5074472;28;20223;-68
2021/06/05 21:53:36;;;;;;;11.00;9.85;;;16.30;99.90;;;;;;5066844;28;20201;-69
2021/06/05 21:56:03;;;;;;;9.30;8.40;;;16.30;99.90;;;;;;5066491;28;20204;-68
2021/06/05 21:58:30;;;;;;;10.98;8.32;;;16.30;99.90;;;;;;5067283;28;20228;-68
2021/06/05 22:01:01;;;;;;;7.70;7.00;;;16.30;99.90;;;;;;5066951;28;20288;-68
2021/06/05 22:03:32;;;;;;;8.15;7.35;;;16.30;99.90;;;;;;5066689;28;20245;-68
2021/06/05 22:06:05;;;;;;;8.38;7.57;;;16.30;99.90;;;;;;5075027;28;20238;-68
2021/06/05 22:08:34;;;;;;;7.15;6.55;;;16.30;99.90;;;;;;5086791;28;20489;-68
2021/06/05 22:11:07;;;;;;;8.55;6.50;;;16.30;99.90;;;;;;5086804;28;20545;-68
2021/06/05 22:13:34;;;;;;;7.47;6.78;;;16.30;99.90;;;;;;5070044;28;20224;-68
2021/06/05 22:16:01;;;;;;;7.53;6.82;;;16.30;99.90;;;;;;5065516;28;20327;-68
2021/06/05 22:18:27;;;;;;;8.38;7.40;;;16.30;99.90;;;;;;5066206;28;20205;-68
2021/06/05 22:20:54;;;;;;;8.65;6.85;;;16.20;99.90;;;;;;5066672;28;20208;-68
2021/06/05 22:23:26;;;;;;;7.45;6.75;;;16.20;99.90;;;;;;5066018;28;20307;-68
2021/06/05 22:25:54;;;;;;;10.70;7.47;;;16.20;99.90;;;;;;5065442;28;20224;-68
2021/06/05 22:28:24;;;;;;;9.05;7.88;;;16.20;99.90;;;;;;5066434;28;20240;-68
2021/06/05 22:30:55;;;;;;;9.02;8.13;;;16.20;99.90;;;;;;5066915;28;20189;-68
2021/06/05 22:33:23;;;;;;;10.45;9.23;;;16.20;99.90;;;;;;5066276;28;20246;-68
2021/06/05 22:35:52;;;;;;;13.82;10.60;;;16.30;99.90;;;;;;5076059;28;20664;-68
2021/06/05 22:38:20;;;;;;;10.30;9.13;;;16.20;99.90;;;;;;5066482;28;20209;-68
2021/06/05 22:40:49;;;;;;;11.65;10.45;;;16.20;99.90;;;;;;5081774;28;20684;-68
2021/06/05 22:43:17;;;;;;;10.50;9.50;;;16.20;99.90;;;;;;5086847;28;20306;-68
2021/06/05 22:45:45;;;;;;;11.60;10.40;;;16.30;99.90;;;;;;5085407;28;20287;-68
2021/06/05 22:48:12;;;;;;;11.55;10.38;;;16.30;99.90;;;;;;5086480;28;20265;-68
2021/06/05 22:50:41;;;;;;;11.30;10.20;;;16.20;99.90;;;;;;5070404;28;20665;-68
2021/06/05 22:53:08;;;;;;;12.90;10.40;;;16.30;99.90;;;;;;5066348;28;20268;-68
2021/06/05 22:55:36;;;;;;;13.43;12.13;;;16.20;99.90;;;;;;5064901;28;20283;-68
2021/06/05 22:58:04;;;;;;;11.98;10.73;;;16.20;99.90;;;;;;5084019;28;20307;-68
2021/06/05 23:00:34;;;;;;;17.88;10.55;;;16.20;99.90;;;;;;5086739;28;20296;-68
2021/06/05 23:03:01;;;;;;;12.73;11.43;;;16.10;99.90;;;;;;5086305;28;20365;-68
2021/06/05 23:05:29;;;;;;;13.18;11.88;;;16.20;99.90;;;;;;5073835;28;20209;-68
2021/06/05 23:07:56;;;;;;;12.57;11.25;;;16.10;99.90;;;;;;5066204;28;20284;-67
2021/06/05 23:10:22;;;;;;;10.85;9.75;;;16.20;99.90;;;;;;5066645;28;20319;-68
2021/06/05 23:12:49;;;;;;;14.15;11.55;;;16.20;99.90;;;;;;5065176;28;20693;-68
2021/06/05 23:15:17;;;;;;;13.30;11.43;;;16.20;99.90;;;;;;5084506;28;20748;-68
2021/06/05 23:17:44;;;;;;;14.25;12.40;;;16.20;99.90;;;;;;5086095;28;20257;-68
2021/06/05 23:20:13;;;;;;;15.70;11.80;;;16.20;99.90;;;;;;5067163;28;20209;-68
2021/06/05 23:22:40;;;;;;;14.48;12.65;;;16.20;99.90;;;;;;5058691;28;20193;-67
2021/06/05 23:25:09;;;;;;;15.27;12.95;;;16.20;99.90;;;;;;5064836;28;20312;-67
2021/06/05 23:27:35;;;;;;;16.40;13.48;;;16.20;99.90;;;;;;5066281;28;20644;-68
2021/06/05 23:30:04;;;;;;;17.85;13.80;;;16.20;99.90;;;;;;5069044;28;20861;-68
2021/06/05 23:32:32;;;;;;;14.90;13.30;;;16.10;99.90;;;;;;5089667;28;20811;-68
2021/06/05 23:34:58;;;;;;;15.38;13.68;;;16.10;99.90;;;;;;5072209;28;20288;-68
2021/06/05 23:37:25;;;;;;;20.10;14.48;;;16.10;99.90;;;;;;5069650;28;20216;-68
2021/06/05 23:39:51;;;;;;;16.70;13.48;;;16.00;99.90;;;;;;5069420;28;20299;-68
2021/06/05 23:42:17;;;;;;;16.48;14.35;;;16.00;99.90;;;;;;5069605;28;20299;-68
2021/06/05 23:44:44;;;;;;;17.40;14.65;;;16.00;99.90;;;;;;5068064;28;20315;-68
2021/06/05 23:47:10;;;;;;;16.02;13.30;;;16.00;99.90;;;;;;5071158;28;20205;-68
2021/06/05 23:49:38;;;;;;;13.73;12.32;;;16.00;99.90;;;;;;5074356;28;20302;-68
2021/06/05 23:52:05;;;;;;;15.68;12.23;;;16.10;99.90;;;;;;5069571;28;20678;-68
2021/06/05 23:54:31;;;;;;;17.17;13.10;;;16.10;99.90;;;;;;5068906;28;20280;-68
2021/06/05 23:56:59;;;;;;;13.25;11.88;;;16.00;99.90;;;;;;5069267;28;20201;-68
2021/06/05 23:59:27;;;;;;;13.30;11.65;;;16.00;99.90;;;;;;5068800;28;20208;-68
